Flight Track Log - Related Links

Times and Time Zones

All times are in EDT time to prevent confusion due to time zone crossing. See the EZY2285 flight status page for this flight to view local times or setup timezone preferences in your user account.

Time Position Orientation Groundspeed Altitude Reporting Facility
EDT Latitude Longitude Course Direction KTS MPH feet Rate Location/Type
Tue 01:35:00 PM 51.1763 0.8304 133° Southeast  Level Estimated
Tue 01:36:00 PM 51.1220 0.9211 134° Southeast  Level Estimated
Tue 01:37:00 PM 51.0677 1.0115 134° Southeast  Level Estimated
Tue 01:38:00 PM 51.0134 1.1018 134° Southeast  Level Estimated
Tue 01:39:00 PM 50.9589 1.1919 134° Southeast  Level Estimated
Tue 01:40:00 PM 50.9044 1.2817 134° Southeast  Level Estimated
Tue 01:41:00 PM 50.8498 1.3714 134° Southeast  Level Estimated
Tue 01:42:00 PM 50.7952 1.4608 134° Southeast  Level Estimated
Tue 01:43:00 PM 50.7405 1.5500 134° Southeast  Level Estimated
Tue 01:44:00 PM 50.6885 1.6344 134° Southeast  Level Estimated
Tue 01:45:00 PM 50.6365 1.7187 134° Southeast  Level Estimated
Tue 01:46:00 PM 50.5845 1.8027 134° Southeast  Level Estimated
Tue 01:47:00 PM 50.5323 1.8865 134° Southeast  Level Estimated
Tue 01:48:00 PM 50.4801 1.9702 134° Southeast  Level Estimated
Tue 01:49:00 PM 50.4279 2.0537 134° Southeast  Level Estimated
Tue 01:50:00 PM 50.3756 2.1370 135° Southeast  Level Estimated
Tue 01:51:00 PM 50.3232 2.2201 135° Southeast  Level Estimated
Tue 01:52:00 PM 50.2708 2.3031 135° Southeast  Level Estimated
Tue 01:53:00 PM 50.2183 2.3858 135° Southeast  Level Estimated
Tue 01:54:00 PM 50.1658 2.4684 135° Southeast  Level Estimated
Tue 01:55:00 PM 50.0980 2.5745 135° Southeast  Level Estimated
Tue 01:56:00 PM 50.0301 2.6804 135° Southeast  Level Estimated
Tue 01:57:00 PM 49.9621 2.7859 135° Southeast  Level Estimated
Tue 01:58:00 PM 49.8940 2.8912 135° Southeast  Level Estimated
Tue 01:59:00 PM 49.8258 2.9961 135° Southeast  Level Estimated
Tue 02:00:00 PM 49.7575 3.1008 135° Southeast  Level Estimated
Tue 02:01:00 PM 49.6891 3.2052 135° Southeast  Level Estimated
Tue 02:02:00 PM 49.6207 3.3093 135° Southeast  Level Estimated
Tue 02:03:00 PM 49.5521 3.4130 136° Southeast  Level Estimated
Tue 02:04:00 PM 49.4834 3.5165 136° Southeast  Level Estimated
Tue 02:05:00 PM 49.4147 3.6197 136° Southeast  Level Estimated
Tue 02:06:00 PM 49.3458 3.7226 136° Southeast  Level Estimated
Tue 02:07:00 PM 49.2769 3.8253 136° Southeast  Level Estimated
Tue 02:08:00 PM 49.2079 3.9276 136° Southeast  Level Estimated
Tue 02:09:00 PM 49.1388 4.0297 136° Southeast  Level Estimated
Tue 02:10:00 PM 49.0696 4.1314 136° Southeast  Level Estimated
Tue 02:11:00 PM 49.0003 4.2329 136° Southeast  Level Estimated
Tue 02:12:00 PM 48.9309 4.3341 136° Southeast  Level Estimated
Tue 02:13:00 PM 48.8614 4.4350 136° Southeast  Level Estimated
Tue 02:14:00 PM 48.7919 4.5357 136° Southeast  Level Estimated
Tue 02:15:00 PM 48.7222 4.6360 136° Southeast  Level Estimated
Tue 02:16:00 PM 48.6525 4.7361 137° Southeast  Level Estimated
Tue 02:17:00 PM 48.5827 4.8359 137° Southeast  Level Estimated
Tue 02:18:00 PM 48.5128 4.9355 137° Southeast  Level Estimated
Tue 02:19:00 PM 48.4428 5.0347 137° Southeast  Level Estimated
Tue 02:20:00 PM 48.3727 5.1337 137° Southeast  Level Estimated
Tue 02:21:00 PM 48.3026 5.2324 137° Southeast  Level Estimated
Tue 02:22:00 PM 48.2323 5.3309 137° Southeast  Level Estimated
Tue 02:23:00 PM 48.1620 5.4290 137° Southeast  Level Estimated
Tue 02:24:00 PM 48.0916 5.5269 137° Southeast  Level Estimated
Tue 02:25:00 PM 48.0211 5.6246 137° Southeast  Level Estimated
Tue 02:26:00 PM 47.9505 5.7219 137° Southeast  Level Estimated
Tue 02:27:00 PM 47.8799 5.8190 137° Southeast  Level Estimated
Tue 02:28:00 PM 47.8091 5.9159 137° Southeast  Level Estimated
Tue 02:29:00 PM 47.7383 6.0125 137° Southeast  Level Estimated
Tue 02:30:00 PM 47.6674 6.1088 138° Southeast  Level Estimated
Tue 02:31:00 PM 47.5964 6.2048 138° Southeast  Level Estimated
Tue 02:32:00 PM 47.5254 6.3006 138° Southeast  Level Estimated
Tue 02:33:00 PM 47.4542 6.3961 138° Southeast  Level Estimated
Tue 02:34:00 PM 47.3830 6.4914 138° Southeast  Level Estimated
Tue 02:35:00 PM 47.3117 6.5864 138° Southeast  Level Estimated
Tue 02:36:00 PM 47.2403 6.6812 138° Southeast  Level Estimated
Tue 02:37:00 PM 47.1689 6.7757 138° Southeast  Level Estimated
Tue 02:38:00 PM 47.0973 6.8699 138° Southeast  Level Estimated
Tue 02:39:00 PM 47.0257 6.9640 138° Southeast  Level Estimated
Tue 02:40:00 PM 46.9540 7.0577 138° Southeast  Level Estimated
Tue 02:41:00 PM 46.8823 7.1512 138° Southeast  Level Estimated
Tue 02:42:00 PM 46.8104 7.2444 138° Southeast  Level Estimated
Tue 02:43:00 PM 46.7385 7.3374 138° Southeast  Level Estimated
Tue 02:44:00 PM 46.6665 7.4302 139° Southeast  Level Estimated
Tue 02:45:00 PM 46.5945 7.5227 139° Southeast  Level Estimated
Tue 02:46:00 PM 46.5223 7.6149 139° Southeast  Level Estimated
Tue 02:47:00 PM 46.4501 7.7070 139° Southeast  Level Estimated
Tue 02:48:00 PM 46.3778 7.7987 139° Southeast  Level Estimated
Tue 02:49:00 PM 46.3146 7.8787 139° Southeast  Level Estimated
Tue 02:50:00 PM 46.2513 7.9585 139° Southeast  Level Estimated
Tue 02:51:00 PM 46.1880 8.0381 139° Southeast  Level Estimated
Tue 02:52:00 PM 46.1246 8.1176 139° Southeast  Level Estimated
Tue 02:53:00 PM 46.0612 8.1968 139° Southeast  Level Estimated
Tue 02:54:00 PM 45.9977 8.2759 139° Southeast  Level Estimated
Tue 02:55:00 PM 45.9341 8.3548 139° Southeast  Level Estimated
Tue 02:56:00 PM 45.8705 8.4335 139° Southeast  Level Estimated
Tue 02:57:00 PM 45.8069 8.5120 139° Southeast  Level Estimated
Tue 02:58:00 PM 45.7431 8.5903 139° Southeast  Level Estimated
Tue 02:59:00 PM 45.6794 8.6685 139° Southeast  Level Estimated
Tue 03:00:00 PM 45.6306 8.7281 139° Southeast  Level Estimated
Tue 03:01:00 PM 45.6306 8.7281 170° South  Level Estimated
Tue 03:02:00 PM 45.6306 8.7281 170° South  Level Estimated
Tue 03:03:00 PM 45.6306 8.7281 170° South  Level Estimated
Tue 03:04:00 PM 45.6306 8.7281 170° South  Level Estimated
Tue 03:05:00 PM 45.6306 8.7281 170° South  Level Estimated
Tue 03:06:00 PM 45.6306 8.7281 170° South  Level Estimated
Tue 03:07:00 PM 45.6306 8.7281 170° South  Level Estimated
Tue 03:08:00 PM 45.6306 8.7281 170° South  Level Estimated
Tue 03:09:00 PM 45.6306 8.7281 170° South  Level Estimated
Tue 03:10:00 PM 45.6306 8.7281 170° South  Level Estimated
Tue 03:11:00 PM 45.6306 8.7281 170° South  Level Estimated
Tue 03:12:00 PM 45.6306 8.7281 170° South  Level Estimated
Tue 03:13:00 PM 45.6306 8.7281 170° South  Level Estimated
Tue 03:14:00 PM 45.6306 8.7281 170° South  Level Estimated
Tue 03:15:00 PM 45.6306 8.7281 170° South  Level Estimated
Tue 03:16:00 PM 45.6306 8.7281 170° South  Level Estimated
Tue 03:17:00 PM 45.6306 8.7281 170° South  Level Estimated

Login

Don't have an account? Register now (free) for customized features, flight alerts, and more!